Pagina principale
METAR-TAF:

METAR-TAF

Aeroporti :

Aeroporto di Ouagadougou

Ouagadougou, Burkina Faso

latitudine: 12-21N, longitudine: 001-31W, altezza: 316 m

Osservazione

Il bollettino è stato emesso 25 minuti fa, alle 03:00 UTC
Vento 8 kt da sud
Temperature 25°C
Umidità 74%
Pressione 1012 hPa
Visibilità 10 km o più
nessuna nube inferiore a 1500 m e nessun cumulonembo

METAR: DFFD 270300Z 19008KT CAVOK 25/20 Q1012 NOSIG

Ora: 03:25 (03:25 UTC)

Previsione

Il bollettino è stato emesso 4 ore e 25 minuti fa, alle 23:00 UTC
Previsione valida dal 27 alle 00 UTC al 28 alle 06 UTC
Vento 10 kt da sud/sud-ovest
Visibilità 10 km o più
nessuna nube inferiore a 1500 m e nessun cumulonembo
Temporaneamente
dal 27 alle 15 UTC al 28 alle 02 UTC
Visibilità: 4000 m
Nubi sparse ad un'altezza di 2600 ft
Poco nuvoloso ad un'altezza di 3600 ft, Cumulonembo.
temporale, pioggia

TAF: DFFD 262300Z 2700/2806 20010KT CAVOK TEMPO 2715/2802 4000 TSRA SCT026 FEW036CB

Osservazioni e previsioni meteorologiche di più di 4000 aeroporti (messaggi METAR e TAF).

Le stazioni disponibili sono rappresentate dai dischi gialli e rossi sulla carta.

Puntare il mouse per vedere il nome della stazione.

Clicca sopra per visualizzare le osservazioni e previsioni meteorologiche.

Per cambiare la mappa : fare clic sui pulsanti verdi con una croce nera per ingrandire, il pulsante verde con un trattino per diminuire, o sulla freccia verde per le mappe adiacenti.


METAR-TAF: